KBVI

Beaver County Airport

Beaver Falls, Pennsylvania, USA

KBVI 260047Z 12004KT 10SM OVC009 14/12 A2981 RMK LAST

Observed Flight Rules
Apr-26 @ 00:47 UTC (an hour ago)
 
Instrument Flight Rules
Wind Visibility Clouds
120° at 4 knots 10 miles
  • Overcast at 900' AGL
Temperatures Readings
Current 14°C / 57°F
Dewpoint 12°C / 54°F
Humidity 88%
Altimeter 29.81" Hg
Pressure 1009 hPa
Elevation 382.0
Observed Flight Rules
Apr-26 @ 00:47 UTC
(an hour ago)
 
IFR
Wind Visibility
120° at 4 knots 10 miles
Clouds
  • Overcast at 900' AGL
Temperature Dewpoint
14°C / 57°F 12°C / 54°F
Humidity Altimeter Pressure
88% 29.81" Hg 1009 hPa